KBRL/BRL METAR and TAF weather

Enter ICAO airport designator
Station Type Date Time Source
KBRL METAR 2022/12/04 05:53 UTC NOAA

KBRL 040553Z AUTO 17005KT 10SM CLR M07/M11 A3039 RMK AO2 SLP303 T10671106 11044 21072 410061089 56017 $


Station Type Date Time Source
KBRL Decoded METAR 2022/12/04 05:53 UTC NOAA

BURLINGTON REGIONAL AIRPORT, IA, United States (KBRL) 40-46N 91-08W 211M
Dec 04, 2022 - 12:53 AM EST / 2022.12.04 0553 UTC
Wind: from the S (170 degrees) at 6 MPH (5 KT):0
Visibility: 10 mile(s):0
Sky conditions: clear
Temperature: 19.9 F (-6.7 C)
Windchill: 12 F (-11 C):1
Dew Point: 12.9 F (-10.6 C)
Relative Humidity: 73%
Pressure (altimeter): 30.39 in. Hg (1029 hPa)
Pressure tendency: 0.05 inches (1.7 hPa) lower than three hours ago
ob: KBRL 040553Z AUTO 17005KT 10SM CLR M07/M11 A3039 RMK AO2 SLP303 T10671106 11044 21072 410061089 56017
cycle: 6

Station Type Date Time Source
KBRL TAF 2022/12/04 06:24 UTC NOAA

TAF KBRL 040521Z 0406/0506 21007KT P6SM BKN250

Example: see airport list